Minneapolis, Minnesota
Traffic Map
Current Weather Conditions
Minneapolis, Minnesota
Few Clouds
Few Clouds
-15°
Feels Like: -25°
Wind Chill: -25° Ceiling: Unl
Heat Index: -15° Visibility: 10mi
Dew Point: -19° Wind: 14mph
Humidity: 73% Direction: 330° (NNW)
Pressure: 30.09in Gusts: 25mph
Raw Report DataKMSP 091253Z 33012G22KT 10SM FEW022 FEW080 M15/M19 A3009 RMK AO2 SLP207 T11501189
Traffic Incident Summary
Active as of:
Severity:
Category:
InformationThere was an issue retrieving the traffic information for this location. Please try a different location or try again shortly.
Advertisements
Track Severe Weather on mobile